Terminal Aerodrome Forecast
Issued by NWS

Home | Current Version | Previous Version | Text Only | Print | Product List | Glossary On
Versions: 1 2 3 4 5 6 7 8 9 10 11 12 13 14 15 16 17 18 19 20 21 22 23 24 25
000
FTAK31 PANC 291733
TAFADU
TAF
PADU 291733Z 2918/3018 06004KT 1/2SM FG OVC002
      TEMPO 2918/2920 2SM BR SCT002 BKN005
     FM292000 07005KT 2SM BR FEW002 BKN005
      TEMPO 2920/2922 6SM BR SCT005 BKN015
     FM292200 07006KT P6SM SCT005 BKN015
     FM300500 VRB03KT 6SM BR BKN005
     FM300900 VRB03KT 1SM BR OVC004
     FM301500 09005KT P6SM BKN008=

USA.gov is the U.S. government's official web portal to all federal, state and local government web resources and services.